sensor_id;sensor_type;location;lat;lon;timestamp;P1;durP1;ratioP1;P2;durP2;ratioP2
21448;SDS011;10885;52.830;13.788;2022-12-07T06:03:02;60.42;;;25.02;;
21448;SDS011;10885;52.830;13.788;2022-12-07T06:08:05;56.40;;;22.98;;
21448;SDS011;10885;52.830;13.788;2022-12-07T06:13:08;58.03;;;23.58;;
21448;SDS011;10885;52.830;13.788;2022-12-07T06:18:10;61.42;;;25.08;;
21448;SDS011;10885;52.830;13.788;2022-12-07T06:23:15;61.00;;;23.65;;
21448;SDS011;10885;52.830;13.788;2022-12-07T06:28:17;61.95;;;24.02;;
21448;SDS011;10885;52.830;13.788;2022-12-07T06:33:20;54.90;;;23.27;;
21448;SDS011;10885;52.830;13.788;2022-12-07T06:38:22;58.25;;;24.48;;
21448;SDS011;10885;52.830;13.788;2022-12-07T06:43:24;60.30;;;23.77;;
21448;SDS011;10885;52.830;13.788;2022-12-07T06:48:26;58.50;;;24.15;;
21448;SDS011;10885;52.830;13.788;2022-12-07T06:53:28;57.97;;;25.27;;
21448;SDS011;10885;52.830;13.788;2022-12-07T06:58:31;61.15;;;24.92;;
21448;SDS011;10885;52.830;13.788;2022-12-07T07:03:33;51.58;;;22.38;;
21448;SDS011;10885;52.830;13.788;2022-12-07T07:08:35;49.45;;;21.52;;
21448;SDS011;10885;52.830;13.788;2022-12-07T07:13:39;46.25;;;20.80;;
21448;SDS011;10885;52.830;13.788;2022-12-07T07:18:41;40.30;;;19.67;;
21448;SDS011;10885;52.830;13.788;2022-12-07T07:23:43;37.17;;;18.15;;
21448;SDS011;10885;52.830;13.788;2022-12-07T07:28:45;37.47;;;18.35;;
21448;SDS011;10885;52.830;13.788;2022-12-07T07:33:48;31.77;;;16.35;;
21448;SDS011;10885;52.830;13.788;2022-12-07T07:38:50;34.40;;;17.02;;
21448;SDS011;10885;52.830;13.788;2022-12-07T07:43:52;34.95;;;15.50;;
21448;SDS011;10885;52.830;13.788;2022-12-07T07:48:54;27.67;;;14.52;;
21448;SDS011;10885;52.830;13.788;2022-12-07T07:53:56;33.72;;;16.90;;
21448;SDS011;10885;52.830;13.788;2022-12-07T07:58:59;17.70;;;9.48;;
21448;SDS011;10885;52.830;13.788;2022-12-07T08:04:01;16.25;;;8.90;;
21448;SDS011;10885;52.830;13.788;2022-12-07T08:09:03;14.23;;;8.07;;
21448;SDS011;10885;52.830;13.788;2022-12-07T08:14:07;12.75;;;7.25;;
21448;SDS011;10885;52.830;13.788;2022-12-07T08:19:09;13.70;;;7.32;;
21448;SDS011;10885;52.830;13.788;2022-12-07T08:24:12;12.48;;;7.07;;
21448;SDS011;10885;52.830;13.788;2022-12-07T08:29:14;10.75;;;7.03;;
21448;SDS011;10885;52.830;13.788;2022-12-07T08:34:16;12.27;;;6.72;;
21448;SDS011;10885;52.830;13.788;2022-12-07T08:39:19;12.00;;;7.05;;
21448;SDS011;10885;52.830;13.788;2022-12-07T08:44:32;11.43;;;7.03;;
21448;SDS011;10885;52.830;13.788;2022-12-07T08:49:39;13.50;;;7.40;;
21448;SDS011;10885;52.830;13.788;2022-12-07T08:54:44;10.20;;;7.05;;
21448;SDS011;10885;52.830;13.788;2022-12-07T08:59:47;11.07;;;6.88;;
21448;SDS011;10885;52.830;13.788;2022-12-07T09:04:49;10.55;;;6.47;;
21448;SDS011;10885;52.830;13.788;2022-12-07T09:09:51;11.95;;;5.82;;
21448;SDS011;10885;52.830;13.788;2022-12-07T09:14:53;9.93;;;6.07;;
21448;SDS011;10885;52.830;13.788;2022-12-07T09:19:56;8.38;;;5.30;;
21448;SDS011;10885;52.830;13.788;2022-12-07T09:24:58;9.98;;;5.32;;
21448;SDS011;10885;52.830;13.788;2022-12-07T09:30:01;9.68;;;6.18;;
21448;SDS011;10885;52.830;13.788;2022-12-07T09:35:04;10.32;;;6.28;;
21448;SDS011;10885;52.830;13.788;2022-12-07T09:40:07;8.25;;;5.50;;
21448;SDS011;10885;52.830;13.788;2022-12-07T09:45:15;7.53;;;5.63;;
21448;SDS011;10885;52.830;13.788;2022-12-07T09:55:27;9.25;;;6.00;;
21448;SDS011;10885;52.830;13.788;2022-12-07T10:00:30;8.23;;;5.35;;
21448;SDS011;10885;52.830;13.788;2022-12-07T10:05:37;6.55;;;4.82;;
21448;SDS011;10885;52.830;13.788;2022-12-07T10:20:59;4.38;;;3.35;;
21448;SDS011;10885;52.830;13.788;2022-12-07T10:26:19;5.28;;;3.53;;
21448;SDS011;10885;52.830;13.788;2022-12-07T10:31:22;4.95;;;3.75;;
21448;SDS011;10885;52.830;13.788;2022-12-07T10:41:54;5.88;;;3.50;;
21448;SDS011;10885;52.830;13.788;2022-12-07T10:47:03;4.20;;;2.97;;
21448;SDS011;10885;52.830;13.788;2022-12-07T10:52:13;3.40;;;2.50;;
21448;SDS011;10885;52.830;13.788;2022-12-07T11:33:53;2.33;;;2.13;;
21448;SDS011;10885;52.830;13.788;2022-12-07T11:39:02;2.88;;;2.50;;
21448;SDS011;10885;52.830;13.788;2022-12-07T11:54:44;5.38;;;2.33;;
21448;SDS011;10885;52.830;13.788;2022-12-07T11:59:50;3.35;;;2.00;;
21448;SDS011;10885;52.830;13.788;2022-12-07T12:10:14;2.90;;;2.40;;
21448;SDS011;10885;52.830;13.788;2022-12-07T12:20:45;4.20;;;2.63;;
21448;SDS011;10885;52.830;13.788;2022-12-07T12:25:53;6.68;;;2.33;;
21448;SDS011;10885;52.830;13.788;2022-12-07T12:31:05;3.22;;;2.33;;
21448;SDS011;10885;52.830;13.788;2022-12-07T12:47:00;4.03;;;2.80;;
21448;SDS011;10885;52.830;13.788;2022-12-07T12:57:36;6.55;;;3.13;;
21448;SDS011;10885;52.830;13.788;2022-12-07T13:02:47;7.25;;;2.67;;
21448;SDS011;10885;52.830;13.788;2022-12-07T13:13:02;5.78;;;2.50;;
21448;SDS011;10885;52.830;13.788;2022-12-07T13:23:35;5.20;;;3.00;;
21448;SDS011;10885;52.830;13.788;2022-12-07T13:28:48;4.63;;;2.50;;
21448;SDS011;10885;52.830;13.788;2022-12-07T13:39:50;4.68;;;2.60;;
21448;SDS011;10885;52.830;13.788;2022-12-07T13:44:55;4.57;;;2.30;;
21448;SDS011;10885;52.830;13.788;2022-12-07T13:49:58;7.50;;;2.55;;
21448;SDS011;10885;52.830;13.788;2022-12-07T13:55:05;8.10;;;3.00;;
21448;SDS011;10885;52.830;13.788;2022-12-07T14:00:17;6.35;;;2.00;;
21448;SDS011;10885;52.830;13.788;2022-12-07T14:10:29;8.48;;;2.00;;
21448;SDS011;10885;52.830;13.788;2022-12-07T14:15:36;8.88;;;2.30;;
21448;SDS011;10885;52.830;13.788;2022-12-07T14:20:39;7.70;;;2.30;;
21448;SDS011;10885;52.830;13.788;2022-12-07T14:25:46;6.32;;;2.00;;
21448;SDS011;10885;52.830;13.788;2022-12-07T14:30:52;6.55;;;1.77;;
21448;SDS011;10885;52.830;13.788;2022-12-07T14:35:55;6.35;;;2.17;;
21448;SDS011;10885;52.830;13.788;2022-12-07T14:40:59;5.28;;;2.30;;
21448;SDS011;10885;52.830;13.788;2022-12-07T14:46:20;8.10;;;1.80;;
21448;SDS011;10885;52.830;13.788;2022-12-07T14:51:23;6.90;;;2.00;;
21448;SDS011;10885;52.830;13.788;2022-12-07T14:56:45;6.18;;;2.72;;
21448;SDS011;10885;52.830;13.788;2022-12-07T15:01:51;7.45;;;3.53;;
21448;SDS011;10885;52.830;13.788;2022-12-07T15:06:57;10.82;;;2.25;;
21448;SDS011;10885;52.830;13.788;2022-12-07T15:12:00;6.20;;;2.35;;
21448;SDS011;10885;52.830;13.788;2022-12-07T15:17:02;4.45;;;1.95;;
21448;SDS011;10885;52.830;13.788;2022-12-07T15:22:12;9.68;;;1.98;;
21448;SDS011;10885;52.830;13.788;2022-12-07T15:27:14;13.48;;;2.17;;
21448;SDS011;10885;52.830;13.788;2022-12-07T15:32:17;5.93;;;2.15;;
21448;SDS011;10885;52.830;13.788;2022-12-07T15:37:19;7.13;;;1.85;;
21448;SDS011;10885;52.830;13.788;2022-12-07T15:42:21;5.57;;;2.08;;
21448;SDS011;10885;52.830;13.788;2022-12-07T15:47:23;5.20;;;2.17;;
21448;SDS011;10885;52.830;13.788;2022-12-07T15:52:26;9.13;;;2.00;;
21448;SDS011;10885;52.830;13.788;2022-12-07T15:57:29;5.72;;;2.22;;
21448;SDS011;10885;52.830;13.788;2022-12-07T16:02:32;7.10;;;2.08;;
21448;SDS011;10885;52.830;13.788;2022-12-07T16:07:42;7.85;;;3.17;;
21448;SDS011;10885;52.830;13.788;2022-12-07T16:12:48;10.48;;;2.20;;
21448;SDS011;10885;52.830;13.788;2022-12-07T16:17:51;6.15;;;2.05;;
21448;SDS011;10885;52.830;13.788;2022-12-07T16:22:56;9.05;;;2.33;;
21448;SDS011;10885;52.830;13.788;2022-12-07T16:27:58;8.20;;;1.88;;
21448;SDS011;10885;52.830;13.788;2022-12-07T16:33:00;14.30;;;2.08;;
21448;SDS011;10885;52.830;13.788;2022-12-07T16:38:03;10.10;;;2.53;;
21448;SDS011;10885;52.830;13.788;2022-12-07T16:43:05;13.30;;;2.35;;
21448;SDS011;10885;52.830;13.788;2022-12-07T16:48:08;12.75;;;2.75;;
21448;SDS011;10885;52.830;13.788;2022-12-07T16:53:11;10.52;;;2.08;;
21448;SDS011;10885;52.830;13.788;2022-12-07T16:58:13;4.57;;;1.98;;
21448;SDS011;10885;52.830;13.788;2022-12-07T17:03:16;9.25;;;2.90;;
21448;SDS011;10885;52.830;13.788;2022-12-07T17:08:21;9.35;;;2.33;;
21448;SDS011;10885;52.830;13.788;2022-12-07T17:13:24;4.50;;;2.20;;
21448;SDS011;10885;52.830;13.788;2022-12-07T17:18:44;13.48;;;2.90;;
21448;SDS011;10885;52.830;13.788;2022-12-07T17:23:50;5.90;;;2.60;;
21448;SDS011;10885;52.830;13.788;2022-12-07T17:28:53;7.63;;;2.42;;
21448;SDS011;10885;52.830;13.788;2022-12-07T17:33:55;7.75;;;1.92;;
21448;SDS011;10885;52.830;13.788;2022-12-07T17:38:58;5.13;;;2.35;;
21448;SDS011;10885;52.830;13.788;2022-12-07T17:44:01;6.45;;;2.45;;
21448;SDS011;10885;52.830;13.788;2022-12-07T17:49:07;10.10;;;2.15;;
21448;SDS011;10885;52.830;13.788;2022-12-07T17:54:10;7.07;;;2.20;;
21448;SDS011;10885;52.830;13.788;2022-12-07T17:59:13;4.60;;;2.17;;
21448;SDS011;10885;52.830;13.788;2022-12-07T18:04:16;7.22;;;2.42;;
21448;SDS011;10885;52.830;13.788;2022-12-07T18:09:18;14.48;;;2.60;;
21448;SDS011;10885;52.830;13.788;2022-12-07T18:14:21;8.00;;;2.92;;
21448;SDS011;10885;52.830;13.788;2022-12-07T18:19:24;7.60;;;2.25;;
21448;SDS011;10885;52.830;13.788;2022-12-07T18:24:26;10.02;;;2.67;;
21448;SDS011;10885;52.830;13.788;2022-12-07T18:29:37;12.63;;;2.92;;
21448;SDS011;10885;52.830;13.788;2022-12-07T18:34:39;11.88;;;2.58;;
21448;SDS011;10885;52.830;13.788;2022-12-07T18:39:42;6.80;;;3.55;;
21448;SDS011;10885;52.830;13.788;2022-12-07T18:44:44;7.85;;;2.60;;
21448;SDS011;10885;52.830;13.788;2022-12-07T18:49:46;11.73;;;2.75;;
21448;SDS011;10885;52.830;13.788;2022-12-07T18:54:48;4.70;;;2.67;;
21448;SDS011;10885;52.830;13.788;2022-12-07T18:59:51;9.20;;;3.25;;
21448;SDS011;10885;52.830;13.788;2022-12-07T19:04:53;7.28;;;2.75;;
21448;SDS011;10885;52.830;13.788;2022-12-07T19:09:55;5.28;;;2.83;;
21448;SDS011;10885;52.830;13.788;2022-12-07T19:14:57;9.82;;;3.20;;
21448;SDS011;10885;52.830;13.788;2022-12-07T19:20:00;13.43;;;3.42;;
21448;SDS011;10885;52.830;13.788;2022-12-07T19:25:03;11.88;;;3.42;;
21448;SDS011;10885;52.830;13.788;2022-12-07T19:30:07;9.07;;;5.32;;
21448;SDS011;10885;52.830;13.788;2022-12-07T19:35:11;10.70;;;3.78;;
21448;SDS011;10885;52.830;13.788;2022-12-07T19:40:13;16.73;;;4.03;;
21448;SDS011;10885;52.830;13.788;2022-12-07T19:45:16;13.30;;;4.47;;
21448;SDS011;10885;52.830;13.788;2022-12-07T19:50:18;8.48;;;3.72;;
21448;SDS011;10885;52.830;13.788;2022-12-07T19:55:20;11.15;;;3.75;;
21448;SDS011;10885;52.830;13.788;2022-12-07T20:00:22;9.23;;;4.18;;
21448;SDS011;10885;52.830;13.788;2022-12-07T20:05:25;10.13;;;3.15;;
21448;SDS011;10885;52.830;13.788;2022-12-07T20:10:27;8.43;;;2.60;;
21448;SDS011;10885;52.830;13.788;2022-12-07T20:15:29;11.02;;;4.82;;
21448;SDS011;10885;52.830;13.788;2022-12-07T20:20:31;8.05;;;3.35;;
21448;SDS011;10885;52.830;13.788;2022-12-07T20:25:34;11.73;;;3.40;;
21448;SDS011;10885;52.830;13.788;2022-12-07T20:30:41;6.90;;;3.50;;
21448;SDS011;10885;52.830;13.788;2022-12-07T20:35:47;12.97;;;3.77;;
21448;SDS011;10885;52.830;13.788;2022-12-07T20:40:49;12.23;;;3.70;;
21448;SDS011;10885;52.830;13.788;2022-12-07T20:45:52;10.75;;;3.85;;
21448;SDS011;10885;52.830;13.788;2022-12-07T20:51:02;6.78;;;3.05;;
21448;SDS011;10885;52.830;13.788;2022-12-07T20:56:06;11.63;;;3.45;;
21448;SDS011;10885;52.830;13.788;2022-12-07T21:01:29;7.20;;;3.20;;
21448;SDS011;10885;52.830;13.788;2022-12-07T21:06:32;11.13;;;3.20;;
21448;SDS011;10885;52.830;13.788;2022-12-07T21:11:34;7.68;;;3.13;;
21448;SDS011;10885;52.830;13.788;2022-12-07T21:16:38;5.50;;;3.20;;
21448;SDS011;10885;52.830;13.788;2022-12-07T21:21:40;6.65;;;2.97;;
21448;SDS011;10885;52.830;13.788;2022-12-07T21:26:43;12.95;;;3.10;;
21448;SDS011;10885;52.830;13.788;2022-12-07T21:31:45;9.57;;;2.70;;
21448;SDS011;10885;52.830;13.788;2022-12-07T21:36:47;10.68;;;2.88;;
21448;SDS011;10885;52.830;13.788;2022-12-07T21:41:50;11.35;;;3.20;;
21448;SDS011;10885;52.830;13.788;2022-12-07T21:46:52;11.25;;;2.70;;
21448;SDS011;10885;52.830;13.788;2022-12-07T21:51:54;5.30;;;2.60;;
21448;SDS011;10885;52.830;13.788;2022-12-07T21:56:57;6.40;;;2.72;;
21448;SDS011;10885;52.830;13.788;2022-12-07T22:01:59;8.70;;;2.97;;
21448;SDS011;10885;52.830;13.788;2022-12-07T22:07:02;7.38;;;2.33;;
21448;SDS011;10885;52.830;13.788;2022-12-07T22:12:04;5.85;;;2.40;;
21448;SDS011;10885;52.830;13.788;2022-12-07T22:17:06;9.13;;;3.45;;
21448;SDS011;10885;52.830;13.788;2022-12-07T22:22:12;8.82;;;2.78;;
21448;SDS011;10885;52.830;13.788;2022-12-07T22:27:16;8.15;;;2.60;;
21448;SDS011;10885;52.830;13.788;2022-12-07T22:32:19;8.25;;;2.58;;
21448;SDS011;10885;52.830;13.788;2022-12-07T22:37:41;11.20;;;3.35;;
21448;SDS011;10885;52.830;13.788;2022-12-07T22:42:43;6.68;;;3.35;;
